Time;durP1;ratioP1;P1;durP2;ratioP2;P2;SDS_P1;SDS_P2;PMS_P1;PMS_P2;Temp;Humidity;BMP_temperature;BMP_pressure;BME280_temperature;BME280_humidity;BME280_pressure;Samples;Min_cycle;Max_cycle;Signal;HPM_P1;HPM_P2
2021/07/05 00:01:21;;;;;;;3.28;1.17;;;15.70;92.70;;;;;;5088508;28;20024;-65
2021/07/05 00:03:47;;;;;;;2.08;1.00;;;15.60;92.60;;;;;;5088832;28;20341;-65
2021/07/05 00:06:13;;;;;;;1.98;1.13;;;15.60;92.60;;;;;;5089728;28;20024;-65
2021/07/05 00:08:39;;;;;;;1.50;1.17;;;15.60;92.60;;;;;;5083525;28;20107;-65
2021/07/05 00:11:04;;;;;;;4.03;1.42;;;15.50;92.70;;;;;;5092317;28;20043;-65
2021/07/05 00:13:31;;;;;;;1.38;1.27;;;15.40;92.70;;;;;;5091576;28;20020;-65
2021/07/05 00:15:58;;;;;;;3.83;1.30;;;15.50;92.90;;;;;;5091527;28;20100;-65
2021/07/05 00:18:24;;;;;;;1.75;1.20;;;15.50;92.80;;;;;;5091256;28;20030;-65
2021/07/05 00:20:50;;;;;;;1.30;0.82;;;15.40;92.70;;;;;;5091466;28;20020;-65
2021/07/05 00:23:16;;;;;;;4.93;1.05;;;15.40;92.70;;;;;;5089647;28;20028;-65
2021/07/05 00:25:41;;;;;;;1.00;0.90;;;15.40;92.70;;;;;;5091560;28;20032;-65
2021/07/05 00:28:08;;;;;;;1.15;1.10;;;15.40;92.60;;;;;;5091251;28;20020;-65
2021/07/05 00:30:34;;;;;;;1.27;1.00;;;15.40;92.70;;;;;;5089707;28;20389;-65
2021/07/05 00:33:00;;;;;;;1.25;1.05;;;15.40;92.70;;;;;;5090449;28;20028;-65
2021/07/05 00:35:26;;;;;;;0.98;0.95;;;15.40;92.70;;;;;;5072151;28;20024;-65
2021/07/05 00:37:53;;;;;;;1.15;0.93;;;15.40;92.70;;;;;;5092036;28;20024;-65
2021/07/05 00:40:20;;;;;;;2.38;0.98;;;15.40;92.70;;;;;;5091465;28;20488;-65
2021/07/05 00:42:46;;;;;;;1.17;1.00;;;15.40;92.70;;;;;;5089283;28;20039;-65
2021/07/05 00:45:12;;;;;;;2.67;0.70;;;15.40;92.70;;;;;;5088842;28;20028;-65
2021/07/05 00:47:38;;;;;;;3.05;0.80;;;15.40;92.60;;;;;;5080338;28;20508;-65
2021/07/05 00:50:06;;;;;;;1.15;1.00;;;15.40;92.70;;;;;;5089649;28;20035;-65
2021/07/05 00:52:33;;;;;;;3.50;1.08;;;15.30;92.60;;;;;;5090515;28;20020;-65
2021/07/05 00:54:59;;;;;;;1.40;0.82;;;15.30;92.60;;;;;;5090733;28;20016;-65
2021/07/05 00:57:25;;;;;;;2.80;0.80;;;15.30;92.70;;;;;;5072547;28;20024;-65
2021/07/05 00:59:52;;;;;;;1.02;0.90;;;15.30;92.70;;;;;;5090629;28;20032;-65
2021/07/05 01:02:20;;;;;;;1.23;0.90;;;15.30;92.70;;;;;;5085705;28;20403;-65
2021/07/05 01:04:46;;;;;;;1.17;0.95;;;15.30;92.70;;;;;;5075208;28;20391;-65
2021/07/05 01:07:12;;;;;;;3.80;1.20;;;15.30;92.70;;;;;;5086568;28;20013;-65
2021/07/05 01:09:39;;;;;;;1.30;1.20;;;15.40;92.60;;;;;;5091392;28;20032;-65
2021/07/05 01:12:05;;;;;;;2.75;1.10;;;15.40;92.60;;;;;;5089862;28;20636;-65
2021/07/05 01:14:31;;;;;;;1.25;1.05;;;15.30;92.60;;;;;;5089983;28;20034;-65
2021/07/05 01:16:57;;;;;;;3.78;1.05;;;15.30;92.60;;;;;;5089418;28;20101;-65
2021/07/05 01:19:23;;;;;;;2.22;0.90;;;15.30;92.60;;;;;;5085836;28;20103;-65
2021/07/05 01:21:49;;;;;;;1.67;0.80;;;15.30;92.60;;;;;;5090326;28;20436;-65
2021/07/05 01:24:15;;;;;;;0.90;0.90;;;15.30;92.60;;;;;;5090074;28;20028;-65
2021/07/05 01:26:41;;;;;;;2.53;1.10;;;15.20;92.60;;;;;;5084198;28;20451;-65
2021/07/05 01:29:06;;;;;;;0.98;0.95;;;15.20;92.70;;;;;;5097102;28;20455;-65
2021/07/05 01:31:34;;;;;;;1.60;1.10;;;15.20;92.70;;;;;;5090216;28;20031;-64
2021/07/05 01:34:00;;;;;;;2.75;0.82;;;15.20;92.60;;;;;;5091198;28;20027;-65
2021/07/05 01:36:26;;;;;;;1.20;0.80;;;15.20;92.60;;;;;;5089384;28;20024;-65
2021/07/05 01:38:52;;;;;;;0.77;0.77;;;15.10;92.70;;;;;;5090666;28;20073;-65
2021/07/05 01:41:19;;;;;;;1.65;1.00;;;15.10;92.60;;;;;;5090171;28;20016;-65
2021/07/05 01:43:45;;;;;;;1.92;0.90;;;15.10;92.70;;;;;;5085128;28;20106;-65
2021/07/05 01:46:11;;;;;;;1.23;1.10;;;15.10;92.70;;;;;;5089260;28;20026;-65
2021/07/05 01:48:36;;;;;;;1.13;1.00;;;15.10;92.80;;;;;;5090622;28;20028;-65
2021/07/05 01:51:03;;;;;;;1.38;1.00;;;15.10;92.80;;;;;;5072120;28;20055;-65
2021/07/05 01:53:28;;;;;;;2.00;0.85;;;15.10;92.90;;;;;;5088391;28;20038;-65
2021/07/05 01:55:54;;;;;;;1.00;0.95;;;15.10;92.90;;;;;;5086196;28;20040;-65
2021/07/05 01:58:20;;;;;;;1.02;1.00;;;15.10;92.90;;;;;;5084985;28;20365;-65
2021/07/05 02:00:46;;;;;;;3.03;0.90;;;15.10;92.90;;;;;;5082426;28;20388;-65
2021/07/05 02:03:14;;;;;;;3.05;0.98;;;15.10;92.90;;;;;;5089333;28;20028;-65
2021/07/05 02:05:40;;;;;;;0.85;0.85;;;15.10;92.90;;;;;;5086053;28;20016;-65
2021/07/05 02:08:06;;;;;;;1.30;1.20;;;15.10;92.80;;;;;;5089078;28;20078;-65
2021/07/05 02:10:35;;;;;;;1.95;1.20;;;15.10;92.90;;;;;;5085852;28;20036;-65
2021/07/05 02:13:06;;;;;;;1.20;1.10;;;15.00;93.00;;;;;;5066587;28;20404;-65
2021/07/05 02:15:31;;;;;;;1.42;1.10;;;15.00;93.20;;;;;;5087078;28;20034;-64
2021/07/05 02:17:57;;;;;;;4.40;1.10;;;15.00;92.90;;;;;;5089568;28;20110;-65
2021/07/05 02:20:26;;;;;;;1.83;1.30;;;15.00;93.20;;;;;;5089709;28;20066;-65
2021/07/05 02:22:53;;;;;;;3.83;1.30;;;15.00;93.00;;;;;;5071165;28;20510;-65
2021/07/05 02:25:28;;;;;;;1.65;1.13;;;15.00;93.00;;;;;;5086912;28;20093;-65
2021/07/05 02:27:56;;;;;;;1.45;0.90;;;15.00;93.00;;;;;;5084179;28;20024;-65
2021/07/05 02:30:23;;;;;;;2.35;1.10;;;14.90;93.20;;;;;;5093619;28;20035;-65
2021/07/05 02:32:49;;;;;;;1.30;1.20;;;14.90;93.10;;;;;;5089362;28;20020;-65
2021/07/05 02:35:19;;;;;;;2.67;0.90;;;14.90;93.10;;;;;;5088452;28;20097;-65
2021/07/05 02:37:47;;;;;;;5.70;0.95;;;14.90;93.20;;;;;;5070188;28;20436;-65
2021/07/05 02:40:14;;;;;;;3.38;0.98;;;14.90;93.30;;;;;;5089212;28;20103;-65
2021/07/05 02:42:41;;;;;;;1.17;1.05;;;14.90;93.30;;;;;;5089126;28;20039;-65
2021/07/05 02:45:10;;;;;;;1.92;1.00;;;14.90;93.20;;;;;;5088339;28;20020;-65
2021/07/05 02:47:36;;;;;;;4.10;1.20;;;14.90;93.20;;;;;;5070266;28;20020;-64
2021/07/05 02:50:04;;;;;;;1.48;0.85;;;14.90;93.20;;;;;;5089446;28;20427;-65
2021/07/05 02:52:30;;;;;;;3.50;0.77;;;14.90;93.30;;;;;;5087614;28;20400;-65
2021/07/05 02:54:56;;;;;;;1.70;0.80;;;14.80;93.30;;;;;;5086800;28;20119;-65
2021/07/05 02:57:30;;;;;;;1.08;0.80;;;14.80;93.30;;;;;;5079986;28;20024;-65
2021/07/05 03:00:01;;;;;;;2.33;0.93;;;14.80;93.30;;;;;;5085534;28;20032;-65
2021/07/05 03:02:31;;;;;;;0.93;0.80;;;14.80;93.30;;;;;;5089691;28;20095;-65
2021/07/05 03:04:58;;;;;;;0.77;0.75;;;14.80;93.30;;;;;;5082904;28;20043;-65
2021/07/05 03:07:24;;;;;;;1.80;0.70;;;14.80;93.40;;;;;;5082953;22;20536;-69
2021/07/05 03:09:50;;;;;;;1.45;1.10;;;14.80;93.40;;;;;;5076798;28;20173;-68
2021/07/05 03:12:15;;;;;;;2.78;1.10;;;14.80;93.40;;;;;;5073876;28;20025;-69
2021/07/05 03:14:41;;;;;;;0.80;0.80;;;14.90;93.40;;;;;;5072519;28;20032;-67
2021/07/05 03:17:06;;;;;;;2.67;1.00;;;14.90;93.40;;;;;;5073125;28;20055;-67
2021/07/05 03:19:32;;;;;;;0.90;0.90;;;14.90;93.40;;;;;;5072915;28;20083;-67
2021/07/05 03:21:58;;;;;;;2.20;0.80;;;14.90;93.40;;;;;;5072813;28;20025;-67
2021/07/05 03:24:23;;;;;;;2.67;1.00;;;15.00;93.50;;;;;;5073075;28;20021;-67
2021/07/05 03:26:49;;;;;;;2.15;1.20;;;15.00;93.50;;;;;;5071750;28;20078;-67
2021/07/05 03:29:14;;;;;;;1.00;1.00;;;15.00;93.50;;;;;;5072129;28;20033;-68
2021/07/05 03:31:40;;;;;;;3.38;1.30;;;15.00;93.40;;;;;;5072595;28;20074;-68
2021/07/05 03:34:05;;;;;;;1.73;1.13;;;15.00;93.40;;;;;;5072813;28;20059;-67
2021/07/05 03:36:32;;;;;;;2.40;1.40;;;15.00;93.50;;;;;;5072004;28;20052;-68
2021/07/05 03:38:57;;;;;;;2.35;1.20;;;15.00;93.40;;;;;;5071987;28;20024;-67
2021/07/05 03:41:23;;;;;;;1.27;1.17;;;15.00;93.40;;;;;;5072744;28;20116;-67
2021/07/05 03:43:48;;;;;;;1.92;1.35;;;15.10;93.60;;;;;;5072686;28;20017;-68
2021/07/05 03:46:14;;;;;;;1.55;1.30;;;15.00;93.60;;;;;;5071803;28;20039;-67
2021/07/05 03:48:40;;;;;;;2.67;1.40;;;15.10;93.60;;;;;;5072745;28;20444;-68
2021/07/05 03:51:06;;;;;;;1.30;1.20;;;15.10;93.60;;;;;;5072907;28;20039;-67
2021/07/05 03:53:31;;;;;;;1.10;1.00;;;15.10;93.60;;;;;;5071499;28;20089;-67
2021/07/05 03:55:57;;;;;;;1.33;1.23;;;15.10;93.60;;;;;;5069962;28;20457;-67
2021/07/05 03:58:23;;;;;;;1.98;1.60;;;15.10;93.70;;;;;;5072911;28;20046;-67
2021/07/05 04:00:49;;;;;;;2.17;1.40;;;15.20;93.70;;;;;;5072255;28;20021;-69
2021/07/05 04:03:15;;;;;;;2.22;1.48;;;15.20;93.70;;;;;;5073012;28;20623;-66
2021/07/05 04:05:41;;;;;;;2.08;1.23;;;15.20;93.70;;;;;;5071507;28;20032;-67
2021/07/05 04:08:07;;;;;;;3.97;1.20;;;15.20;93.70;;;;;;5071898;28;20032;-67
2021/07/05 04:10:33;;;;;;;3.25;1.40;;;15.30;93.70;;;;;;5071048;28;20457;-67
2021/07/05 04:12:59;;;;;;;2.88;1.23;;;15.30;94.00;;;;;;5072596;28;20035;-67
2021/07/05 04:15:25;;;;;;;1.25;1.10;;;15.30;93.80;;;;;;5071415;28;20043;-68
2021/07/05 04:17:51;;;;;;;0.90;0.90;;;15.40;93.80;;;;;;5070826;28;20036;-67
2021/07/05 04:20:20;;;;;;;3.22;1.20;;;15.40;93.70;;;;;;5072004;28;20031;-67
2021/07/05 04:22:46;;;;;;;1.20;1.10;;;15.40;93.70;;;;;;5072323;28;20017;-68
2021/07/05 04:25:13;;;;;;;3.58;1.20;;;15.50;93.70;;;;;;5069381;28;20051;-66
2021/07/05 04:27:39;;;;;;;2.47;1.10;;;15.40;93.70;;;;;;5071074;28;20404;-67
2021/07/05 04:30:07;;;;;;;3.65;0.88;;;15.50;93.70;;;;;;5070348;28;20039;-66
2021/07/05 04:32:32;;;;;;;0.95;0.95;;;15.50;93.70;;;;;;5071643;28;20497;-67
2021/07/05 04:34:58;;;;;;;2.00;1.00;;;15.60;93.60;;;;;;5070082;28;20104;-68
2021/07/05 04:37:24;;;;;;;0.90;0.90;;;15.60;93.60;;;;;;5069779;28;20044;-67
2021/07/05 04:39:49;;;;;;;3.92;1.00;;;15.60;93.60;;;;;;5070052;28;20029;-67
2021/07/05 04:42:15;;;;;;;1.20;1.10;;;15.50;93.60;;;;;;5071253;28;20469;-67
2021/07/05 04:44:41;;;;;;;3.15;1.30;;;15.60;93.70;;;;;;5071140;28;20033;-67
2021/07/05 04:47:07;;;;;;;2.53;1.25;;;15.60;93.80;;;;;;5074383;28;20418;-68
2021/07/05 04:49:32;;;;;;;1.65;1.10;;;15.60;93.80;;;;;;5068688;28;20024;-68
2021/07/05 04:51:58;;;;;;;5.65;1.23;;;15.60;93.80;;;;;;5069760;28;20550;-71
2021/07/05 04:54:24;;;;;;;1.20;1.10;;;15.70;93.80;;;;;;5070135;28;20033;-68
2021/07/05 04:56:50;;;;;;;1.30;1.20;;;15.70;93.70;;;;;;5070747;28;20040;-67
2021/07/05 04:59:16;;;;;;;2.05;1.10;;;15.70;93.70;;;;;;5072223;28;20028;-68
2021/07/05 05:01:45;;;;;;;2.78;1.23;;;15.70;93.70;;;;;;5070278;28;20055;-68
2021/07/05 05:04:11;;;;;;;3.70;1.38;;;15.70;93.70;;;;;;5062214;28;20031;-68
2021/07/05 05:06:37;;;;;;;2.03;1.80;;;15.80;93.70;;;;;;5071026;28;20037;-68
2021/07/05 05:09:03;;;;;;;1.20;1.10;;;15.80;93.80;;;;;;5071275;28;20033;-68
2021/07/05 05:11:29;;;;;;;2.42;1.58;;;15.80;93.70;;;;;;5071430;28;20039;-70
2021/07/05 05:13:54;;;;;;;1.73;1.23;;;15.80;93.80;;;;;;5071600;28;20119;-68
2021/07/05 05:16:20;;;;;;;3.90;1.15;;;15.90;93.80;;;;;;5070846;28;20036;-68
2021/07/05 05:18:45;;;;;;;6.47;3.90;;;15.90;93.80;;;;;;5050802;28;20052;-68
2021/07/05 05:21:11;;;;;;;1.70;1.60;;;16.00;93.90;;;;;;5067809;28;20066;-68
2021/07/05 05:23:37;;;;;;;3.78;1.27;;;16.10;93.80;;;;;;5069827;28;20024;-68
2021/07/05 05:26:02;;;;;;;2.20;1.40;;;16.10;93.80;;;;;;5068602;28;20028;-68
2021/07/05 05:28:28;;;;;;;1.58;1.48;;;16.10;93.80;;;;;;5070453;28;20433;-68
2021/07/05 05:30:54;;;;;;;1.30;1.20;;;16.20;93.80;;;;;;5053626;28;20104;-68
2021/07/05 05:33:19;;;;;;;1.92;1.30;;;16.20;93.90;;;;;;5070739;28;20438;-68
2021/07/05 05:35:45;;;;;;;5.28;1.30;;;16.20;93.90;;;;;;5070391;28;20358;-69
2021/07/05 05:38:11;;;;;;;1.67;1.58;;;16.30;93.90;;;;;;5070908;28;20082;-68
2021/07/05 05:40:37;;;;;;;1.52;1.40;;;16.30;93.90;;;;;;5062635;28;20488;-69
2021/07/05 05:43:07;;;;;;;2.75;1.23;;;16.40;93.90;;;;;;5046092;28;20120;-68
2021/07/05 05:45:33;;;;;;;4.43;1.45;;;16.40;93.90;;;;;;5052547;28;20028;-68
2021/07/05 05:47:59;;;;;;;1.77;1.67;;;16.40;93.90;;;;;;5070905;28;20029;-68
2021/07/05 05:50:24;;;;;;;1.58;1.35;;;16.50;93.90;;;;;;5052785;28;20032;-68
2021/07/05 05:52:50;;;;;;;2.40;1.45;;;16.50;93.90;;;;;;5070869;28;20518;-68
2021/07/05 05:55:15;;;;;;;2.65;1.58;;;16.50;93.90;;;;;;5069625;28;20100;-68
2021/07/05 05:57:41;;;;;;;1.60;1.50;;;16.50;93.90;;;;;;5070740;28;20097;-68
2021/07/05 06:00:13;;;;;;;2.03;1.40;;;16.60;93.90;;;;;;5070877;28;20033;-68
2021/07/05 06:02:39;;;;;;;;;;;16.60;93.80;;;;;;5071066;28;20108;-68
2021/07/05 06:05:05;;;;;;;1.35;1.30;;;16.60;93.70;;;;;;5057737;28;19995;-68
2021/07/05 06:07:31;;;;;;;2.53;1.50;;;16.60;93.70;;;;;;5065630;28;20029;-69
2021/07/05 06:09:56;;;;;;;1.30;1.20;;;16.60;93.80;;;;;;5069001;28;20048;-68
2021/07/05 06:12:22;;;;;;;1.25;1.10;;;16.70;93.80;;;;;;5070370;28;20404;-69
2021/07/05 06:14:47;;;;;;;12.02;6.60;;;16.70;93.80;;;;;;5069143;28;20154;-69
2021/07/05 06:17:13;;;;;;;1.73;1.40;;;16.70;93.70;;;;;;5070007;28;20390;-70
2021/07/05 06:19:39;;;;;;;1.52;1.10;;;16.80;93.60;;;;;;5051532;28;20032;-68
2021/07/05 06:22:13;;;;;;;2.45;1.10;;;16.80;93.60;;;;;;5070308;28;20115;-68
2021/07/05 06:24:39;;;;;;;1.27;1.13;;;16.70;93.60;;;;;;5069055;28;20024;-68
2021/07/05 06:27:04;;;;;;;1.20;1.10;;;16.80;93.50;;;;;;5061915;28;20024;-68
2021/07/05 06:29:30;;;;;;;2.72;1.30;;;16.80;93.50;;;;;;5069718;28;20032;-69
2021/07/05 06:31:56;;;;;;;1.20;1.10;;;16.80;93.40;;;;;;5051759;28;20036;-69
2021/07/05 06:34:21;;;;;;;1.48;1.23;;;16.90;93.50;;;;;;5069171;28;20104;-68
2021/07/05 06:36:47;;;;;;;3.40;1.52;;;16.90;93.40;;;;;;5065038;28;20020;-68
2021/07/05 06:39:12;;;;;;;1.90;1.42;;;16.90;93.40;;;;;;5069096;28;20028;-68
2021/07/05 06:41:38;;;;;;;2.05;1.13;;;16.90;93.30;;;;;;5073638;28;20028;-69
2021/07/05 06:44:03;;;;;;;1.52;1.42;;;16.90;93.40;;;;;;5073739;28;20409;-69
2021/07/05 06:46:29;;;;;;;4.78;1.33;;;17.00;93.50;;;;;;5073258;28;20488;-69
2021/07/05 06:48:55;;;;;;;1.50;1.40;;;17.00;93.40;;;;;;5074268;28;20102;-69
2021/07/05 06:51:21;;;;;;;2.10;1.20;;;17.10;93.40;;;;;;5075989;28;20116;-69
2021/07/05 06:53:47;;;;;;;1.60;1.25;;;17.10;93.30;;;;;;5075360;28;20028;-69
2021/07/05 06:56:12;;;;;;;3.80;1.20;;;17.10;93.20;;;;;;5074257;28;20039;-69
2021/07/05 06:58:39;;;;;;;1.92;1.20;;;17.10;93.10;;;;;;5073809;28;20058;-69
2021/07/05 07:01:04;;;;;;;2.47;1.08;;;17.10;93.20;;;;;;5074607;28;20089;-69
2021/07/05 07:03:30;;;;;;;2.38;1.77;;;17.10;93.20;;;;;;5073780;28;20492;-69
2021/07/05 07:05:56;;;;;;;1.92;1.10;;;17.20;93.30;;;;;;5073172;28;20487;-69
2021/07/05 07:08:23;;;;;;;1.75;1.00;;;17.20;93.30;;;;;;5073079;28;20046;-69
2021/07/05 07:10:48;;;;;;;2.17;1.33;;;17.30;93.20;;;;;;5073718;28;20402;-69
2021/07/05 07:13:14;;;;;;;2.72;0.90;;;17.30;93.10;;;;;;5075142;28;20107;-68
2021/07/05 07:15:44;;;;;;;2.90;1.20;;;17.30;93.00;;;;;;5073238;28;20082;-69
2021/07/05 07:21:08;;;;;;;4.40;0.98;;;17.40;92.90;;;;;;5039537;28;20043;-68
2021/07/05 07:23:34;;;;;;;2.25;1.20;;;17.50;92.90;;;;;;5072738;28;20020;-69
2021/07/05 07:25:59;;;;;;;2.22;0.80;;;17.60;92.90;;;;;;5072163;28;20036;-69
2021/07/05 07:28:25;;;;;;;2.58;1.08;;;17.60;92.70;;;;;;5073394;28;20143;-70
2021/07/05 07:30:50;;;;;;;2.22;1.02;;;17.70;92.60;;;;;;5070352;28;20033;-70
2021/07/05 07:33:16;;;;;;;1.33;0.70;;;17.70;92.50;;;;;;5068815;28;20064;-68
2021/07/05 07:35:42;;;;;;;0.90;0.90;;;17.70;92.50;;;;;;5062449;28;20108;-68
2021/07/05 07:38:07;;;;;;;2.00;0.80;;;17.70;92.40;;;;;;5069706;28;20033;-69
2021/07/05 07:40:36;;;;;;;1.00;1.00;;;17.60;92.30;;;;;;5072367;28;20415;-70
2021/07/05 07:43:02;;;;;;;3.05;1.10;;;17.70;92.20;;;;;;5072897;28;20072;-69
2021/07/05 07:45:27;;;;;;;2.45;0.80;;;17.60;92.20;;;;;;5071795;28;20032;-70
2021/07/05 07:47:53;;;;;;;1.30;0.88;;;17.60;92.30;;;;;;5073058;28;20027;-70
2021/07/05 07:50:20;;;;;;;2.05;0.90;;;17.70;92.30;;;;;;5070108;28;20504;-69
2021/07/05 07:52:46;;;;;;;2.53;1.10;;;17.70;92.20;;;;;;5072549;28;20479;-69
2021/07/05 07:55:14;;;;;;;1.25;0.90;;;17.70;92.20;;;;;;5053267;28;20032;-69
2021/07/05 07:57:41;;;;;;;1.17;0.93;;;17.70;92.20;;;;;;5055192;28;20024;-69
2021/07/05 08:00:14;;;;;;;2.05;1.23;;;17.70;92.20;;;;;;5072506;28;20112;-68
2021/07/05 08:02:40;;;;;;;1.60;0.90;;;17.80;92.20;;;;;;5072470;28;20041;-68
2021/07/05 08:05:07;;;;;;;4.25;1.23;;;17.70;92.10;;;;;;5071823;28;20063;-69
2021/07/05 08:07:36;;;;;;;1.15;1.05;;;17.70;92.10;;;;;;5053772;28;20043;-68
2021/07/05 08:10:02;;;;;;;1.45;1.02;;;17.70;92.00;;;;;;5071931;28;20039;-69
2021/07/05 08:12:28;;;;;;;1.55;1.13;;;17.70;92.10;;;;;;5072157;28;20021;-68
2021/07/05 08:14:56;;;;;;;5.82;1.40;;;17.70;92.30;;;;;;5071273;28;20028;-69
2021/07/05 08:17:21;;;;;;;2.65;1.10;;;17.70;92.30;;;;;;5071484;28;20540;-69
2021/07/05 08:19:47;;;;;;;1.70;0.90;;;17.70;92.30;;;;;;5071142;28;20040;-69
2021/07/05 08:22:13;;;;;;;3.08;1.08;;;17.70;92.40;;;;;;5071949;28;20024;-69
2021/07/05 08:24:38;;;;;;;3.40;1.13;;;17.70;92.40;;;;;;5049639;28;20020;-69
2021/07/05 08:27:04;;;;;;;1.15;0.90;;;17.80;92.30;;;;;;5068129;28;20025;-69
2021/07/05 08:29:29;;;;;;;1.33;1.13;;;17.80;92.30;;;;;;5072675;28;20609;-69
2021/07/05 08:31:55;;;;;;;1.85;0.80;;;17.80;92.30;;;;;;5070760;28;20070;-69
2021/07/05 08:34:20;;;;;;;1.10;1.00;;;17.80;92.40;;;;;;5072022;28;20112;-69
2021/07/05 08:36:47;;;;;;;1.27;0.80;;;17.90;92.40;;;;;;5070949;28;20085;-70
2021/07/05 08:39:13;;;;;;;1.25;1.15;;;17.90;92.30;;;;;;5072184;28;20028;-69
2021/07/05 08:41:39;;;;;;;2.17;1.17;;;18.00;92.20;;;;;;5070970;28;20020;-69
2021/07/05 08:44:06;;;;;;;2.88;0.98;;;18.00;92.20;;;;;;5060772;28;20469;-69
2021/07/05 08:46:33;;;;;;;2.35;1.23;;;18.00;92.10;;;;;;5061957;28;20082;-69
2021/07/05 08:48:59;;;;;;;2.10;0.80;;;18.00;92.00;;;;;;5071925;28;20025;-69
2021/07/05 08:51:24;;;;;;;0.90;0.90;;;18.00;92.10;;;;;;5071731;28;20500;-69
2021/07/05 08:53:52;;;;;;;0.90;0.90;;;18.10;92.20;;;;;;5071333;28;20107;-69
2021/07/05 08:56:18;;;;;;;1.83;0.90;;;18.20;92.10;;;;;;5070773;28;20415;-69
2021/07/05 08:58:46;;;;;;;0.85;0.82;;;18.40;92.10;;;;;;5071753;28;20364;-69
2021/07/05 09:01:13;;;;;;;2.35;0.80;;;18.70;91.70;;;;;;5071478;28;20032;-69
2021/07/05 09:03:38;;;;;;;3.33;1.05;;;18.90;91.30;;;;;;5070971;28;20489;-69
2021/07/05 09:06:12;;;;;;;1.25;1.00;;;18.90;91.10;;;;;;5070528;28;20031;-69
2021/07/05 09:08:39;;;;;;;1.55;0.93;;;19.00;91.00;;;;;;5091266;22;20047;-66
2021/07/05 09:11:08;;;;;;;1.33;0.80;;;19.10;91.00;;;;;;5091168;28;20023;-66
2021/07/05 09:13:53;;;;;;;1.98;0.70;;;19.20;91.00;;;;;;5073416;28;20050;-66
2021/07/05 09:16:28;;;;;;;1.80;1.02;;;19.20;90.90;;;;;;5090347;28;20372;-66
2021/07/05 09:18:54;;;;;;;2.45;1.00;;;19.20;91.00;;;;;;5091464;28;20391;-66
2021/07/05 09:21:26;;;;;;;2.20;1.15;;;19.30;91.10;;;;;;5091334;28;20047;-66
2021/07/05 09:23:52;;;;;;;1.88;1.00;;;19.30;91.00;;;;;;5080210;28;20031;-66
2021/07/05 09:26:23;;;;;;;1.63;1.25;;;19.30;91.00;;;;;;5082129;28;20020;-66
2021/07/05 09:28:51;;;;;;;2.78;0.90;;;19.40;91.00;;;;;;5091087;28;20464;-66
2021/07/05 09:31:32;;;;;;;3.85;0.90;;;19.30;90.80;;;;;;5091662;28;20433;-66
2021/07/05 09:33:58;;;;;;;2.55;1.05;;;19.30;91.10;;;;;;5080253;28;20555;-66
2021/07/05 09:36:25;;;;;;;3.13;1.98;;;19.30;91.10;;;;;;5071494;28;20028;-66
2021/07/05 09:38:51;;;;;;;2.60;1.25;;;19.30;91.10;;;;;;5087563;28;20046;-66
2021/07/05 09:41:27;;;;;;;2.30;0.90;;;19.30;90.90;;;;;;5090961;28;20020;-66
2021/07/05 09:43:58;;;;;;;1.80;0.80;;;19.20;90.90;;;;;;5090632;28;20111;-66
2021/07/05 09:46:55;;;;;;;1.35;0.88;;;19.20;90.90;;;;;;5090065;28;20046;-66
2021/07/05 09:49:29;;;;;;;1.58;0.82;;;19.20;91.00;;;;;;5073880;28;20067;-66
2021/07/05 09:52:12;;;;;;;0.90;0.80;;;19.20;91.00;;;;;;5072654;28;20060;-66
2021/07/05 09:54:43;;;;;;;0.85;0.85;;;19.10;91.10;;;;;;5089376;28;20062;-66
2021/07/05 09:57:26;;;;;;;3.08;0.98;;;19.20;91.10;;;;;;5090770;28;20457;-66
2021/07/05 10:00:18;;;;;;;0.70;0.70;;;19.10;91.00;;;;;;5090895;28;20020;-66
2021/07/05 10:03:01;;;;;;;2.60;1.00;;;19.10;90.90;;;;;;5089003;28;20020;-66
2021/07/05 10:05:42;;;;;;;1.63;0.90;;;19.10;90.90;;;;;;5070919;28;20068;-66
2021/07/05 10:08:10;;;;;;;1.58;1.17;;;19.00;90.80;;;;;;5090166;28;20111;-66
2021/07/05 10:10:38;;;;;;;1.13;0.95;;;18.90;90.80;;;;;;5089609;28;20036;-66
2021/07/05 10:13:07;;;;;;;2.08;1.08;;;18.80;90.80;;;;;;5090991;28;20024;-66
2021/07/05 10:15:33;;;;;;;0.80;0.80;;;18.80;90.80;;;;;;5089315;28;20027;-66
2021/07/05 10:17:59;;;;;;;1.30;1.10;;;18.80;90.70;;;;;;5082051;28;20071;-66
2021/07/05 10:20:28;;;;;;;1.92;0.77;;;18.80;90.70;;;;;;5052307;28;20388;-66
2021/07/05 10:22:59;;;;;;;0.70;0.70;;;18.70;90.70;;;;;;5081527;28;20380;-66
2021/07/05 10:25:29;;;;;;;5.80;1.08;;;18.70;90.60;;;;;;5087768;28;20024;-67
2021/07/05 10:27:55;;;;;;;1.05;0.80;;;18.70;90.60;;;;;;5089990;28;20354;-67
2021/07/05 10:30:22;;;;;;;26.73;19.88;;;18.70;90.70;;;;;;5081000;28;20024;-66
2021/07/05 10:32:48;;;;;;;4.97;1.63;;;18.60;90.80;;;;;;5075833;28;20031;-67
2021/07/05 10:35:21;;;;;;;1.45;1.27;;;18.50;90.70;;;;;;5078228;28;20159;-66
2021/07/05 10:38:12;;;;;;;1.52;1.20;;;18.30;91.00;;;;;;5070288;28;20516;-66
2021/07/05 10:40:45;;;;;;;2.88;2.53;;;18.20;91.20;;;;;;5077010;28;20036;-66
2021/07/05 10:43:15;;;;;;;2.35;1.05;;;18.10;91.30;;;;;;5071695;28;20039;-66
2021/07/05 10:45:44;;;;;;;1.60;0.77;;;18.00;91.50;;;;;;5071417;28;20028;-66
2021/07/05 10:48:18;;;;;;;1.20;1.00;;;17.90;91.50;;;;;;5078335;28;20012;-67
2021/07/05 10:50:50;;;;;;;7.25;5.70;;;17.90;92.00;;;;;;5052431;28;20413;-66
2021/07/05 10:53:43;;;;;;;0.90;0.90;;;17.90;92.10;;;;;;5086128;28;20077;-66
2021/07/05 10:56:29;;;;;;;0.50;0.50;;;17.90;92.10;;;;;;5059109;28;20025;-66
2021/07/05 10:59:11;;;;;;;0.82;0.70;;;17.90;92.20;;;;;;5084241;28;20423;-66
2021/07/05 11:01:48;;;;;;;1.85;0.82;;;17.90;92.10;;;;;;5090637;28;20118;-66
2021/07/05 11:04:31;;;;;;;0.80;0.80;;;17.90;92.40;;;;;;5090084;28;20028;-67
2021/07/05 11:06:59;;;;;;;0.80;0.80;;;17.90;92.60;;;;;;5079454;28;20384;-66
2021/07/05 11:09:25;;;;;;;1.45;0.63;;;17.90;92.50;;;;;;5077315;28;20039;-66
2021/07/05 11:11:58;;;;;;;2.30;0.82;;;17.90;92.20;;;;;;5071192;28;20032;-66
2021/07/05 11:14:30;;;;;;;0.68;0.68;;;17.80;92.30;;;;;;5090153;28;20491;-67
2021/07/05 11:17:04;;;;;;;2.92;0.65;;;17.70;92.40;;;;;;5051962;28;20081;-66
2021/07/05 11:19:49;;;;;;;1.40;0.80;;;17.70;92.50;;;;;;5082558;28;20030;-66
2021/07/05 11:22:35;;;;;;;1.00;0.80;;;17.70;92.50;;;;;;5067061;28;20026;-66
2021/07/05 11:25:18;;;;;;;0.80;0.80;;;17.70;92.70;;;;;;5068850;28;20017;-67
2021/07/05 11:27:52;;;;;;;0.63;0.63;;;17.70;92.60;;;;;;5078965;28;20016;-66
2021/07/05 11:30:44;;;;;;;1.20;0.90;;;17.80;92.80;;;;;;5055629;28;20081;-67
2021/07/05 11:33:09;;;;;;;1.30;1.05;;;17.80;92.70;;;;;;5085152;28;20051;-66
2021/07/05 11:35:44;;;;;;;1.00;0.90;;;17.80;92.60;;;;;;5073944;28;20468;-65
2021/07/05 11:38:24;;;;;;;1.17;1.08;;;17.80;92.90;;;;;;5074604;28;20028;-66
2021/07/05 11:41:02;;;;;;;1.38;1.23;;;17.90;92.90;;;;;;5073319;28;20027;-67
2021/07/05 11:44:10;;;;;;;0.85;0.47;;;17.90;92.70;;;;;;5074384;28;20027;-66
2021/07/05 11:46:35;;;;;;;1.58;0.70;;;17.90;92.60;;;;;;5092555;28;20020;-66
2021/07/05 11:49:22;;;;;;;2.33;0.70;;;17.90;92.60;;;;;;5089974;28;20032;-66
2021/07/05 11:51:57;;;;;;;1.33;0.60;;;17.90;92.70;;;;;;5086302;28;20020;-66
2021/07/05 11:54:43;;;;;;;1.55;0.77;;;17.90;92.80;;;;;;5090034;28;20100;-67
2021/07/05 11:57:08;;;;;;;0.60;0.60;;;18.00;92.80;;;;;;5073023;28;20080;-67
2021/07/05 11:59:36;;;;;;;0.73;0.73;;;18.00;92.80;;;;;;5087248;28;20059;-66
2021/07/05 12:02:12;;;;;;;0.65;0.60;;;18.10;93.00;;;;;;5093482;28;20056;-67
2021/07/05 12:04:45;;;;;;;0.40;0.40;;;18.20;92.90;;;;;;5076741;28;20043;-66
2021/07/05 12:07:13;;;;;;;0.60;0.60;;;18.20;92.80;;;;;;5080171;28;20024;-67
2021/07/05 12:09:41;;;;;;;1.65;0.57;;;18.30;92.80;;;;;;5079073;28;20077;-66
2021/07/05 12:12:12;;;;;;;1.35;0.50;;;18.40;92.70;;;;;;5075308;28;20029;-66
2021/07/05 12:14:38;;;;;;;0.80;0.57;;;18.50;92.70;;;;;;5071025;28;20094;-66
2021/07/05 12:17:05;;;;;;;1.60;0.50;;;18.60;92.60;;;;;;5071707;28;20723;-66
2021/07/05 12:19:33;;;;;;;1.20;0.60;;;18.60;92.50;;;;;;5059125;28;20024;-67
2021/07/05 12:22:02;;;;;;;3.10;0.50;;;18.60;92.50;;;;;;5091881;28;20027;-66
2021/07/05 12:24:37;;;;;;;0.60;0.60;;;18.70;92.40;;;;;;5086099;28;20392;-67
2021/07/05 12:27:08;;;;;;;1.45;0.50;;;18.70;92.20;;;;;;5086200;28;20495;-68
2021/07/05 12:29:40;;;;;;;5.25;0.75;;;18.60;92.20;;;;;;5073055;28;20027;-67
2021/07/05 12:32:10;;;;;;;0.55;0.55;;;18.60;92.30;;;;;;5073327;28;20035;-67
2021/07/05 12:35:04;;;;;;;1.48;0.57;;;18.60;92.20;;;;;;5088316;28;20047;-67
2021/07/05 12:38:09;;;;;;;0.95;0.80;;;18.50;92.20;;;;;;5090206;28;20020;-67
2021/07/05 12:40:34;;;;;;;0.73;0.70;;;18.50;92.20;;;;;;5058745;28;20039;-67
2021/07/05 12:43:06;;;;;;;0.73;0.60;;;18.50;92.20;;;;;;5089882;28;20043;-67
2021/07/05 12:45:39;;;;;;;2.70;0.63;;;18.50;92.30;;;;;;5082905;28;20045;-67
2021/07/05 12:48:15;;;;;;;1.38;0.57;;;18.50;92.40;;;;;;5083563;28;20061;-67
2021/07/05 12:50:41;;;;;;;0.65;0.50;;;18.60;92.40;;;;;;5066641;28;20028;-66
2021/07/05 12:53:12;;;;;;;0.60;0.60;;;18.60;92.30;;;;;;5090770;28;20024;-67
2021/07/05 12:55:51;;;;;;;2.05;0.82;;;18.60;92.30;;;;;;5071729;28;20028;-67
2021/07/05 12:58:48;;;;;;;0.68;0.68;;;18.70;92.40;;;;;;5073025;28;20165;-67